sensor_id;sensor_type;location;lat;lon;timestamp;temperature;humidity
10304;DHT22;5197;48.152;8.590;2023-11-19T00:00:32;6.60;30.70
10304;DHT22;5197;48.152;8.590;2023-11-19T00:02:59;6.60;30.60
10304;DHT22;5197;48.152;8.590;2023-11-19T00:05:27;6.60;30.50
10304;DHT22;5197;48.152;8.590;2023-11-19T00:07:55;6.70;31.90
10304;DHT22;5197;48.152;8.590;2023-11-19T00:10:22;6.70;30.70
10304;DHT22;5197;48.152;8.590;2023-11-19T00:12:50;6.70;30.80
10304;DHT22;5197;48.152;8.590;2023-11-19T00:15:18;6.70;30.70
10304;DHT22;5197;48.152;8.590;2023-11-19T00:17:47;6.70;30.80
10304;DHT22;5197;48.152;8.590;2023-11-19T00:20:19;6.80;30.70
10304;DHT22;5197;48.152;8.590;2023-11-19T00:22:46;6.70;30.80
10304;DHT22;5197;48.152;8.590;2023-11-19T00:25:17;6.80;31.10
10304;DHT22;5197;48.152;8.590;2023-11-19T00:27:45;6.80;31.20
10304;DHT22;5197;48.152;8.590;2023-11-19T00:30:12;6.80;31.40
10304;DHT22;5197;48.152;8.590;2023-11-19T00:32:41;6.80;31.30
10304;DHT22;5197;48.152;8.590;2023-11-19T00:35:08;6.80;31.40
10304;DHT22;5197;48.152;8.590;2023-11-19T00:37:37;6.80;31.50
10304;DHT22;5197;48.152;8.590;2023-11-19T00:40:05;6.80;31.50
10304;DHT22;5197;48.152;8.590;2023-11-19T00:42:33;6.80;31.40
10304;DHT22;5197;48.152;8.590;2023-11-19T00:45:00;6.80;31.60
10304;DHT22;5197;48.152;8.590;2023-11-19T00:47:28;6.80;31.70
10304;DHT22;5197;48.152;8.590;2023-11-19T00:49:55;6.80;31.80
10304;DHT22;5197;48.152;8.590;2023-11-19T00:52:22;6.80;31.90
10304;DHT22;5197;48.152;8.590;2023-11-19T00:54:49;6.80;32.10
10304;DHT22;5197;48.152;8.590;2023-11-19T00:57:17;6.80;32.20
10304;DHT22;5197;48.152;8.590;2023-11-19T00:59:44;6.80;32.30
10304;DHT22;5197;48.152;8.590;2023-11-19T01:02:11;6.80;32.50
10304;DHT22;5197;48.152;8.590;2023-11-19T01:04:38;6.90;32.60
10304;DHT22;5197;48.152;8.590;2023-11-19T01:07:05;6.90;32.80
10304;DHT22;5197;48.152;8.590;2023-11-19T01:09:33;6.90;32.80
10304;DHT22;5197;48.152;8.590;2023-11-19T01:12:02;6.90;32.90
10304;DHT22;5197;48.152;8.590;2023-11-19T01:14:30;6.90;32.80
10304;DHT22;5197;48.152;8.590;2023-11-19T01:16:57;7.00;33.10
10304;DHT22;5197;48.152;8.590;2023-11-19T01:19:25;7.00;33.10
10304;DHT22;5197;48.152;8.590;2023-11-19T01:21:52;7.00;33.30
10304;DHT22;5197;48.152;8.590;2023-11-19T01:24:19;7.00;33.40
10304;DHT22;5197;48.152;8.590;2023-11-19T01:26:46;7.00;33.40
10304;DHT22;5197;48.152;8.590;2023-11-19T01:29:16;7.10;33.40
10304;DHT22;5197;48.152;8.590;2023-11-19T01:31:45;7.10;33.40
10304;DHT22;5197;48.152;8.590;2023-11-19T01:34:13;7.10;33.40
10304;DHT22;5197;48.152;8.590;2023-11-19T01:36:40;7.10;33.70
10304;DHT22;5197;48.152;8.590;2023-11-19T01:39:07;7.10;33.70
10304;DHT22;5197;48.152;8.590;2023-11-19T01:41:35;7.10;33.90
10304;DHT22;5197;48.152;8.590;2023-11-19T01:44:03;7.20;35.30
10304;DHT22;5197;48.152;8.590;2023-11-19T01:46:30;7.20;34.00
10304;DHT22;5197;48.152;8.590;2023-11-19T01:49:00;7.20;34.20
10304;DHT22;5197;48.152;8.590;2023-11-19T01:51:28;7.20;34.40
10304;DHT22;5197;48.152;8.590;2023-11-19T01:53:55;7.30;34.40
10304;DHT22;5197;48.152;8.590;2023-11-19T01:56:27;7.30;34.60
10304;DHT22;5197;48.152;8.590;2023-11-19T01:58:55;7.30;34.60
10304;DHT22;5197;48.152;8.590;2023-11-19T02:01:23;7.30;34.80
10304;DHT22;5197;48.152;8.590;2023-11-19T02:03:51;7.30;34.80
10304;DHT22;5197;48.152;8.590;2023-11-19T02:06:19;7.40;34.90
10304;DHT22;5197;48.152;8.590;2023-11-19T02:08:46;7.40;35.20
10304;DHT22;5197;48.152;8.590;2023-11-19T02:11:13;7.40;35.30
10304;DHT22;5197;48.152;8.590;2023-11-19T02:13:40;7.40;35.40
10304;DHT22;5197;48.152;8.590;2023-11-19T02:16:08;7.50;35.60
10304;DHT22;5197;48.152;8.590;2023-11-19T02:18:36;7.50;35.80
10304;DHT22;5197;48.152;8.590;2023-11-19T02:21:03;7.50;35.80
10304;DHT22;5197;48.152;8.590;2023-11-19T02:23:32;7.50;36.00
10304;DHT22;5197;48.152;8.590;2023-11-19T02:28:29;7.60;36.30
10304;DHT22;5197;48.152;8.590;2023-11-19T02:30:56;7.70;36.70
10304;DHT22;5197;48.152;8.590;2023-11-19T02:33:24;7.70;36.80
10304;DHT22;5197;48.152;8.590;2023-11-19T02:35:51;7.80;37.50
10304;DHT22;5197;48.152;8.590;2023-11-19T02:38:18;7.80;37.70
10304;DHT22;5197;48.152;8.590;2023-11-19T02:40:45;7.90;37.90
10304;DHT22;5197;48.152;8.590;2023-11-19T02:43:12;8.00;38.00
10304;DHT22;5197;48.152;8.590;2023-11-19T02:45:40;8.00;38.40
10304;DHT22;5197;48.152;8.590;2023-11-19T02:48:07;8.10;38.20
10304;DHT22;5197;48.152;8.590;2023-11-19T02:50:34;8.20;38.70
10304;DHT22;5197;48.152;8.590;2023-11-19T02:53:01;8.20;38.50
10304;DHT22;5197;48.152;8.590;2023-11-19T02:55:28;8.30;38.60
10304;DHT22;5197;48.152;8.590;2023-11-19T02:58:01;8.40;38.70
10304;DHT22;5197;48.152;8.590;2023-11-19T03:00:32;8.40;38.70
10304;DHT22;5197;48.152;8.590;2023-11-19T03:03:03;8.50;38.80
10304;DHT22;5197;48.152;8.590;2023-11-19T03:05:49;8.50;39.00
10304;DHT22;5197;48.152;8.590;2023-11-19T03:08:16;8.50;39.10
10304;DHT22;5197;48.152;8.590;2023-11-19T03:10:47;8.60;39.20
10304;DHT22;5197;48.152;8.590;2023-11-19T03:13:14;8.60;39.20
10304;DHT22;5197;48.152;8.590;2023-11-19T03:15:41;9.20;40.00
10304;DHT22;5197;48.152;8.590;2023-11-19T03:18:08;8.70;39.90
10304;DHT22;5197;48.152;8.590;2023-11-19T03:20:35;8.70;40.00
10304;DHT22;5197;48.152;8.590;2023-11-19T03:23:02;8.70;40.10
10304;DHT22;5197;48.152;8.590;2023-11-19T03:25:30;8.70;40.30
10304;DHT22;5197;48.152;8.590;2023-11-19T03:28:01;8.70;40.40
10304;DHT22;5197;48.152;8.590;2023-11-19T03:30:30;8.70;40.80
10304;DHT22;5197;48.152;8.590;2023-11-19T03:33:01;8.80;41.10
10304;DHT22;5197;48.152;8.590;2023-11-19T03:35:29;8.80;41.30
10304;DHT22;5197;48.152;8.590;2023-11-19T03:37:56;8.80;41.70
10304;DHT22;5197;48.152;8.590;2023-11-19T03:40:23;8.80;41.50
10304;DHT22;5197;48.152;8.590;2023-11-19T03:42:52;8.90;41.80
10304;DHT22;5197;48.152;8.590;2023-11-19T03:45:19;8.90;42.00
10304;DHT22;5197;48.152;8.590;2023-11-19T03:47:46;8.90;42.30
10304;DHT22;5197;48.152;8.590;2023-11-19T03:50:13;9.00;42.50
10304;DHT22;5197;48.152;8.590;2023-11-19T03:52:42;9.00;42.40
10304;DHT22;5197;48.152;8.590;2023-11-19T03:55:10;9.00;42.50
10304;DHT22;5197;48.152;8.590;2023-11-19T03:57:39;9.10;42.50
10304;DHT22;5197;48.152;8.590;2023-11-19T04:00:07;9.10;42.60
10304;DHT22;5197;48.152;8.590;2023-11-19T04:02:37;9.10;42.60
10304;DHT22;5197;48.152;8.590;2023-11-19T04:05:05;9.20;42.80
10304;DHT22;5197;48.152;8.590;2023-11-19T04:07:33;9.10;44.10
10304;DHT22;5197;48.152;8.590;2023-11-19T04:10:01;9.20;42.90
10304;DHT22;5197;48.152;8.590;2023-11-19T04:12:29;9.20;43.00
10304;DHT22;5197;48.152;8.590;2023-11-19T04:14:55;9.20;43.30
10304;DHT22;5197;48.152;8.590;2023-11-19T04:17:26;9.20;43.10
10304;DHT22;5197;48.152;8.590;2023-11-19T04:19:53;9.30;43.60
10304;DHT22;5197;48.152;8.590;2023-11-19T04:22:20;9.30;43.70
10304;DHT22;5197;48.152;8.590;2023-11-19T04:24:47;9.30;43.80
10304;DHT22;5197;48.152;8.590;2023-11-19T04:27:14;9.30;43.90
10304;DHT22;5197;48.152;8.590;2023-11-19T04:29:41;9.40;44.10
10304;DHT22;5197;48.152;8.590;2023-11-19T04:32:08;9.40;44.20
10304;DHT22;5197;48.152;8.590;2023-11-19T04:34:36;9.40;44.30
10304;DHT22;5197;48.152;8.590;2023-11-19T04:37:04;9.40;44.10
10304;DHT22;5197;48.152;8.590;2023-11-19T04:39:34;9.40;44.40
10304;DHT22;5197;48.152;8.590;2023-11-19T04:42:01;9.50;44.70
10304;DHT22;5197;48.152;8.590;2023-11-19T04:44:29;9.50;44.50
10304;DHT22;5197;48.152;8.590;2023-11-19T04:46:56;9.50;44.70
10304;DHT22;5197;48.152;8.590;2023-11-19T04:49:24;9.50;45.00
10304;DHT22;5197;48.152;8.590;2023-11-19T04:51:54;9.50;45.10
10304;DHT22;5197;48.152;8.590;2023-11-19T04:54:21;9.50;44.80
10304;DHT22;5197;48.152;8.590;2023-11-19T04:56:48;9.60;45.20
10304;DHT22;5197;48.152;8.590;2023-11-19T04:59:15;9.60;45.00
10304;DHT22;5197;48.152;8.590;2023-11-19T05:01:47;9.60;45.00
10304;DHT22;5197;48.152;8.590;2023-11-19T05:04:14;9.60;44.90
10304;DHT22;5197;48.152;8.590;2023-11-19T05:06:42;9.60;45.30
10304;DHT22;5197;48.152;8.590;2023-11-19T05:09:09;9.60;45.10
10304;DHT22;5197;48.152;8.590;2023-11-19T05:11:39;9.60;45.20
10304;DHT22;5197;48.152;8.590;2023-11-19T05:14:10;9.70;45.00
10304;DHT22;5197;48.152;8.590;2023-11-19T05:16:40;9.70;45.00
10304;DHT22;5197;48.152;8.590;2023-11-19T05:19:07;9.70;45.30
10304;DHT22;5197;48.152;8.590;2023-11-19T05:21:35;9.70;45.40
10304;DHT22;5197;48.152;8.590;2023-11-19T05:24:03;9.70;45.10
10304;DHT22;5197;48.152;8.590;2023-11-19T05:26:33;9.80;45.00
10304;DHT22;5197;48.152;8.590;2023-11-19T05:29:00;9.80;45.10
10304;DHT22;5197;48.152;8.590;2023-11-19T05:31:28;9.80;45.10
10304;DHT22;5197;48.152;8.590;2023-11-19T05:33:54;9.80;45.30
10304;DHT22;5197;48.152;8.590;2023-11-19T05:36:22;9.80;45.50
10304;DHT22;5197;48.152;8.590;2023-11-19T05:38:49;9.80;45.20
10304;DHT22;5197;48.152;8.590;2023-11-19T05:41:16;9.80;45.10
10304;DHT22;5197;48.152;8.590;2023-11-19T05:43:43;9.90;46.40
10304;DHT22;5197;48.152;8.590;2023-11-19T05:46:11;9.90;45.30
10304;DHT22;5197;48.152;8.590;2023-11-19T05:48:43;9.90;45.10
10304;DHT22;5197;48.152;8.590;2023-11-19T05:51:10;9.90;45.10
10304;DHT22;5197;48.152;8.590;2023-11-19T05:53:37;9.90;45.00
10304;DHT22;5197;48.152;8.590;2023-11-19T05:56:04;9.90;45.10
10304;DHT22;5197;48.152;8.590;2023-11-19T05:58:31;9.90;45.20
10304;DHT22;5197;48.152;8.590;2023-11-19T06:00:59;9.90;45.10
10304;DHT22;5197;48.152;8.590;2023-11-19T06:03:30;9.90;45.30
10304;DHT22;5197;48.152;8.590;2023-11-19T06:05:57;9.90;45.30
10304;DHT22;5197;48.152;8.590;2023-11-19T06:08:24;9.90;45.20
10304;DHT22;5197;48.152;8.590;2023-11-19T06:10:53;9.90;45.40
10304;DHT22;5197;48.152;8.590;2023-11-19T06:13:21;9.90;45.30
10304;DHT22;5197;48.152;8.590;2023-11-19T06:15:51;9.90;45.00
10304;DHT22;5197;48.152;8.590;2023-11-19T06:18:18;9.90;45.10
10304;DHT22;5197;48.152;8.590;2023-11-19T06:20:47;10.00;44.30
10304;DHT22;5197;48.152;8.590;2023-11-19T06:23:15;10.00;44.30
10304;DHT22;5197;48.152;8.590;2023-11-19T06:25:42;10.00;44.30
10304;DHT22;5197;48.152;8.590;2023-11-19T06:28:09;10.00;44.10
10304;DHT22;5197;48.152;8.590;2023-11-19T06:30:36;10.00;44.00
10304;DHT22;5197;48.152;8.590;2023-11-19T06:33:04;10.00;44.10
10304;DHT22;5197;48.152;8.590;2023-11-19T06:35:31;10.00;44.10
10304;DHT22;5197;48.152;8.590;2023-11-19T06:38:03;10.00;44.10
10304;DHT22;5197;48.152;8.590;2023-11-19T06:40:35;10.00;44.20
10304;DHT22;5197;48.152;8.590;2023-11-19T06:43:02;10.10;44.10
10304;DHT22;5197;48.152;8.590;2023-11-19T06:45:30;10.10;44.40
10304;DHT22;5197;48.152;8.590;2023-11-19T06:47:58;10.10;44.10
10304;DHT22;5197;48.152;8.590;2023-11-19T06:50:27;10.10;44.00
10304;DHT22;5197;48.152;8.590;2023-11-19T06:52:55;10.10;44.00
10304;DHT22;5197;48.152;8.590;2023-11-19T06:55:22;10.20;44.20
10304;DHT22;5197;48.152;8.590;2023-11-19T06:57:49;10.20;44.00
10304;DHT22;5197;48.152;8.590;2023-11-19T07:00:17;10.20;45.00
10304;DHT22;5197;48.152;8.590;2023-11-19T07:02:44;10.20;43.80
10304;DHT22;5197;48.152;8.590;2023-11-19T07:05:12;10.20;44.00
10304;DHT22;5197;48.152;8.590;2023-11-19T07:07:40;10.20;43.60
10304;DHT22;5197;48.152;8.590;2023-11-19T07:10:07;10.20;43.90
10304;DHT22;5197;48.152;8.590;2023-11-19T07:12:36;10.20;43.80
10304;DHT22;5197;48.152;8.590;2023-11-19T07:15:04;10.20;44.00
10304;DHT22;5197;48.152;8.590;2023-11-19T07:17:32;10.20;43.70
10304;DHT22;5197;48.152;8.590;2023-11-19T07:19:59;10.20;43.90
10304;DHT22;5197;48.152;8.590;2023-11-19T07:22:27;10.30;43.80
10304;DHT22;5197;48.152;8.590;2023-11-19T07:24:56;10.30;43.90
10304;DHT22;5197;48.152;8.590;2023-11-19T07:27:23;10.30;43.40
10304;DHT22;5197;48.152;8.590;2023-11-19T07:29:52;10.30;43.60
10304;DHT22;5197;48.152;8.590;2023-11-19T07:32:19;10.30;43.50
10304;DHT22;5197;48.152;8.590;2023-11-19T07:34:46;10.30;43.60
10304;DHT22;5197;48.152;8.590;2023-11-19T07:37:13;10.30;43.40
10304;DHT22;5197;48.152;8.590;2023-11-19T07:39:40;10.40;43.30
10304;DHT22;5197;48.152;8.590;2023-11-19T07:42:08;10.40;43.40
10304;DHT22;5197;48.152;8.590;2023-11-19T07:44:36;10.40;43.10
10304;DHT22;5197;48.152;8.590;2023-11-19T07:47:04;10.40;43.30
10304;DHT22;5197;48.152;8.590;2023-11-19T07:49:31;10.40;43.50
10304;DHT22;5197;48.152;8.590;2023-11-19T07:51:59;10.50;43.20
10304;DHT22;5197;48.152;8.590;2023-11-19T07:54:26;10.50;43.10
10304;DHT22;5197;48.152;8.590;2023-11-19T07:56:54;10.50;43.00
10304;DHT22;5197;48.152;8.590;2023-11-19T07:59:28;10.50;42.90
10304;DHT22;5197;48.152;8.590;2023-11-19T08:01:55;10.60;43.00
10304;DHT22;5197;48.152;8.590;2023-11-19T08:04:22;10.60;43.10
10304;DHT22;5197;48.152;8.590;2023-11-19T08:06:50;10.60;43.10
10304;DHT22;5197;48.152;8.590;2023-11-19T08:09:17;10.60;43.10
10304;DHT22;5197;48.152;8.590;2023-11-19T08:11:44;10.70;43.20
10304;DHT22;5197;48.152;8.590;2023-11-19T08:14:12;10.70;43.10
10304;DHT22;5197;48.152;8.590;2023-11-19T08:16:39;10.80;44.50
10304;DHT22;5197;48.152;8.590;2023-11-19T08:19:07;10.80;43.10
10304;DHT22;5197;48.152;8.590;2023-11-19T08:21:35;10.80;42.80
10304;DHT22;5197;48.152;8.590;2023-11-19T08:24:02;10.90;43.00
10304;DHT22;5197;48.152;8.590;2023-11-19T08:26:30;10.90;42.90
10304;DHT22;5197;48.152;8.590;2023-11-19T08:28:57;10.90;42.70
10304;DHT22;5197;48.152;8.590;2023-11-19T08:31:25;11.00;42.70
10304;DHT22;5197;48.152;8.590;2023-11-19T08:33:52;11.00;42.40
10304;DHT22;5197;48.152;8.590;2023-11-19T08:36:19;11.10;42.40
10304;DHT22;5197;48.152;8.590;2023-11-19T08:38:46;11.10;42.00
10304;DHT22;5197;48.152;8.590;2023-11-19T08:41:16;11.20;41.80
10304;DHT22;5197;48.152;8.590;2023-11-19T08:43:45;11.20;41.50
10304;DHT22;5197;48.152;8.590;2023-11-19T08:46:12;11.20;41.50
10304;DHT22;5197;48.152;8.590;2023-11-19T08:48:39;11.20;41.20
10304;DHT22;5197;48.152;8.590;2023-11-19T08:51:07;11.20;41.40
10304;DHT22;5197;48.152;8.590;2023-11-19T08:53:34;11.30;41.00
10304;DHT22;5197;48.152;8.590;2023-11-19T08:56:01;11.30;42.00
10304;DHT22;5197;48.152;8.590;2023-11-19T08:58:30;11.30;40.50
10304;DHT22;5197;48.152;8.590;2023-11-19T09:00:58;11.30;40.50
10304;DHT22;5197;48.152;8.590;2023-11-19T09:03:25;11.30;40.50
10304;DHT22;5197;48.152;8.590;2023-11-19T09:05:57;11.30;40.80
10304;DHT22;5197;48.152;8.590;2023-11-19T09:08:24;11.40;40.50
10304;DHT22;5197;48.152;8.590;2023-11-19T09:10:51;11.40;40.30
10304;DHT22;5197;48.152;8.590;2023-11-19T09:13:18;11.40;40.60
10304;DHT22;5197;48.152;8.590;2023-11-19T09:15:45;11.50;40.60
10304;DHT22;5197;48.152;8.590;2023-11-19T09:18:12;11.50;40.30
10304;DHT22;5197;48.152;8.590;2023-11-19T09:20:40;11.60;40.00
10304;DHT22;5197;48.152;8.590;2023-11-19T09:23:07;11.50;39.70
10304;DHT22;5197;48.152;8.590;2023-11-19T09:25:36;11.60;39.70
10304;DHT22;5197;48.152;8.590;2023-11-19T09:28:06;11.60;39.60
10304;DHT22;5197;48.152;8.590;2023-11-19T09:30:36;11.60;39.40
10304;DHT22;5197;48.152;8.590;2023-11-19T09:33:03;11.70;39.40
10304;DHT22;5197;48.152;8.590;2023-11-19T09:35:30;11.70;39.10
10304;DHT22;5197;48.152;8.590;2023-11-19T09:37:57;11.70;38.60
10304;DHT22;5197;48.152;8.590;2023-11-19T09:40:26;11.80;38.30
10304;DHT22;5197;48.152;8.590;2023-11-19T09:42:55;11.80;38.10
10304;DHT22;5197;48.152;8.590;2023-11-19T09:45:27;11.90;38.00
10304;DHT22;5197;48.152;8.590;2023-11-19T09:47:55;11.90;37.60
10304;DHT22;5197;48.152;8.590;2023-11-19T09:50:24;12.00;37.30
10304;DHT22;5197;48.152;8.590;2023-11-19T09:52:52;12.00;36.90
10304;DHT22;5197;48.152;8.590;2023-11-19T09:55:19;12.00;36.40
10304;DHT22;5197;48.152;8.590;2023-11-19T09:57:50;12.00;36.10
10304;DHT22;5197;48.152;8.590;2023-11-19T10:00:25;12.10;35.90
10304;DHT22;5197;48.152;8.590;2023-11-19T10:02:55;12.10;35.50
10304;DHT22;5197;48.152;8.590;2023-11-19T10:05:25;12.10;34.60
10304;DHT22;5197;48.152;8.590;2023-11-19T10:07:53;12.20;34.60
10304;DHT22;5197;48.152;8.590;2023-11-19T10:10:25;12.20;33.90
10304;DHT22;5197;48.152;8.590;2023-11-19T10:12:53;12.20;33.40
10304;DHT22;5197;48.152;8.590;2023-11-19T10:15:24;12.20;32.90
10304;DHT22;5197;48.152;8.590;2023-11-19T10:18:03;12.20;33.00
10304;DHT22;5197;48.152;8.590;2023-11-19T10:20:42;12.30;32.70
10304;DHT22;5197;48.152;8.590;2023-11-19T10:23:12;12.30;32.90
10304;DHT22;5197;48.152;8.590;2023-11-19T10:25:43;12.40;32.60
10304;DHT22;5197;48.152;8.590;2023-11-19T10:28:11;12.50;32.00
10304;DHT22;5197;48.152;8.590;2023-11-19T10:30:41;12.50;31.20
10304;DHT22;5197;48.152;8.590;2023-11-19T10:33:13;12.60;30.60
10304;DHT22;5197;48.152;8.590;2023-11-19T10:35:54;12.60;29.40
10304;DHT22;5197;48.152;8.590;2023-11-19T10:38:25;12.70;28.60
10304;DHT22;5197;48.152;8.590;2023-11-19T10:40:55;12.70;27.30
10304;DHT22;5197;48.152;8.590;2023-11-19T10:43:22;12.70;26.90
10304;DHT22;5197;48.152;8.590;2023-11-19T10:45:52;12.70;26.00
10304;DHT22;5197;48.152;8.590;2023-11-19T10:48:20;12.70;25.90
10304;DHT22;5197;48.152;8.590;2023-11-19T10:50:53;12.70;25.20
10304;DHT22;5197;48.152;8.590;2023-11-19T10:53:27;12.70;25.20
10304;DHT22;5197;48.152;8.590;2023-11-19T10:56:00;12.70;24.60
10304;DHT22;5197;48.152;8.590;2023-11-19T10:58:29;12.70;24.40
10304;DHT22;5197;48.152;8.590;2023-11-19T11:01:02;12.70;24.30
10304;DHT22;5197;48.152;8.590;2023-11-19T11:03:51;12.80;24.30
10304;DHT22;5197;48.152;8.590;2023-11-19T11:06:22;12.90;24.10
10304;DHT22;5197;48.152;8.590;2023-11-19T11:08:51;12.90;24.30
10304;DHT22;5197;48.152;8.590;2023-11-19T11:11:18;13.00;23.40
10304;DHT22;5197;48.152;8.590;2023-11-19T11:13:50;13.00;22.80
10304;DHT22;5197;48.152;8.590;2023-11-19T11:16:19;13.40;23.20
10304;DHT22;5197;48.152;8.590;2023-11-19T11:18:47;13.00;22.80
10304;DHT22;5197;48.152;8.590;2023-11-19T11:21:20;13.00;22.80
10304;DHT22;5197;48.152;8.590;2023-11-19T11:35:27;13.00;22.80
10304;DHT22;5197;48.152;8.590;2023-11-19T11:38:07;13.10;22.90
10304;DHT22;5197;48.152;8.590;2023-11-19T11:40:35;13.20;23.00
10304;DHT22;5197;48.152;8.590;2023-11-19T11:43:03;13.20;23.00
10304;DHT22;5197;48.152;8.590;2023-11-19T11:45:37;13.20;20.70
10304;DHT22;5197;48.152;8.590;2023-11-19T11:48:09;13.30;19.50
10304;DHT22;5197;48.152;8.590;2023-11-19T11:50:54;13.30;18.80
10304;DHT22;5197;48.152;8.590;2023-11-19T11:53:26;13.20;14.70
10304;DHT22;5197;48.152;8.590;2023-11-19T11:55:55;13.20;16.10
10304;DHT22;5197;48.152;8.590;2023-11-19T11:58:32;13.20;16.60
10304;DHT22;5197;48.152;8.590;2023-11-19T12:01:26;13.20;16.50
10304;DHT22;5197;48.152;8.590;2023-11-19T12:03:58;13.20;14.70
10304;DHT22;5197;48.152;8.590;2023-11-19T12:06:27;13.20;16.90
10304;DHT22;5197;48.152;8.590;2023-11-19T12:08:59;13.20;16.90
10304;DHT22;5197;48.152;8.590;2023-11-19T12:11:28;13.20;15.00
10304;DHT22;5197;48.152;8.590;2023-11-19T12:13:57;13.20;16.20
10304;DHT22;5197;48.152;8.590;2023-11-19T12:16:29;13.20;15.90
10304;DHT22;5197;48.152;8.590;2023-11-19T12:19:03;13.20;13.80
10304;DHT22;5197;48.152;8.590;2023-11-19T12:21:32;13.20;13.60
10304;DHT22;5197;48.152;8.590;2023-11-19T12:24:00;13.20;13.20
10304;DHT22;5197;48.152;8.590;2023-11-19T12:26:37;13.30;13.50
10304;DHT22;5197;48.152;8.590;2023-11-19T12:29:07;13.20;12.60
10304;DHT22;5197;48.152;8.590;2023-11-19T12:31:37;13.30;12.20
10304;DHT22;5197;48.152;8.590;2023-11-19T12:34:11;13.20;13.00
10304;DHT22;5197;48.152;8.590;2023-11-19T12:36:40;13.30;13.20
10304;DHT22;5197;48.152;8.590;2023-11-19T12:39:07;13.30;13.30
10304;DHT22;5197;48.152;8.590;2023-11-19T12:41:49;13.30;13.50
10304;DHT22;5197;48.152;8.590;2023-11-19T12:44:16;13.30;9.50
10304;DHT22;5197;48.152;8.590;2023-11-19T12:46:44;13.30;12.80
10304;DHT22;5197;48.152;8.590;2023-11-19T12:49:11;13.30;12.80
10304;DHT22;5197;48.152;8.590;2023-11-19T12:51:38;13.40;13.00
10304;DHT22;5197;48.152;8.590;2023-11-19T12:54:05;13.40;12.90
10304;DHT22;5197;48.152;8.590;2023-11-19T12:56:33;13.40;11.20
10304;DHT22;5197;48.152;8.590;2023-11-19T12:59:18;13.30;9.10
10304;DHT22;5197;48.152;8.590;2023-11-19T13:01:58;13.30;9.60
10304;DHT22;5197;48.152;8.590;2023-11-19T13:04:30;13.30;10.10
10304;DHT22;5197;48.152;8.590;2023-11-19T13:07:00;13.30;11.60
10304;DHT22;5197;48.152;8.590;2023-11-19T13:09:31;13.30;11.80
10304;DHT22;5197;48.152;8.590;2023-11-19T13:11:59;13.30;11.60
10304;DHT22;5197;48.152;8.590;2023-11-19T13:14:37;13.30;11.80
10304;DHT22;5197;48.152;8.590;2023-11-19T13:17:15;13.40;11.60
10304;DHT22;5197;48.152;8.590;2023-11-19T13:19:43;13.40;11.30
10304;DHT22;5197;48.152;8.590;2023-11-19T13:22:09;13.40;11.70
10304;DHT22;5197;48.152;8.590;2023-11-19T13:24:37;13.40;11.50
10304;DHT22;5197;48.152;8.590;2023-11-19T13:27:04;13.30;12.10
10304;DHT22;5197;48.152;8.590;2023-11-19T13:29:31;13.30;11.70
10304;DHT22;5197;48.152;8.590;2023-11-19T13:32:00;13.30;9.80
10304;DHT22;5197;48.152;8.590;2023-11-19T13:34:27;13.30;12.00
10304;DHT22;5197;48.152;8.590;2023-11-19T13:36:54;13.30;12.00
10304;DHT22;5197;48.152;8.590;2023-11-19T13:39:21;13.30;11.10
10304;DHT22;5197;48.152;8.590;2023-11-19T13:41:50;13.30;9.70
10304;DHT22;5197;48.152;8.590;2023-11-19T13:44:17;13.20;9.80
10304;DHT22;5197;48.152;8.590;2023-11-19T13:46:46;13.30;9.40
10304;DHT22;5197;48.152;8.590;2023-11-19T13:49:14;13.20;9.20
10304;DHT22;5197;48.152;8.590;2023-11-19T13:51:42;13.30;9.20
10304;DHT22;5197;48.152;8.590;2023-11-19T13:54:09;13.20;8.80
10304;DHT22;5197;48.152;8.590;2023-11-19T13:56:36;13.20;9.00
10304;DHT22;5197;48.152;8.590;2023-11-19T13:59:04;13.20;8.50
10304;DHT22;5197;48.152;8.590;2023-11-19T14:01:33;13.20;8.20
10304;DHT22;5197;48.152;8.590;2023-11-19T14:04:00;13.20;8.00
10304;DHT22;5197;48.152;8.590;2023-11-19T14:06:27;13.20;7.60
10304;DHT22;5197;48.152;8.590;2023-11-19T14:08:54;13.20;7.60
10304;DHT22;5197;48.152;8.590;2023-11-19T14:11:22;13.20;7.40
10304;DHT22;5197;48.152;8.590;2023-11-19T14:13:49;13.10;7.20
10304;DHT22;5197;48.152;8.590;2023-11-19T14:16:16;13.10;5.90
10304;DHT22;5197;48.152;8.590;2023-11-19T14:18:44;13.10;6.40
10304;DHT22;5197;48.152;8.590;2023-11-19T14:21:11;13.10;6.40
10304;DHT22;5197;48.152;8.590;2023-11-19T14:23:39;13.10;6.20
10304;DHT22;5197;48.152;8.590;2023-11-19T14:26:06;13.10;6.00
10304;DHT22;5197;48.152;8.590;2023-11-19T14:28:34;13.00;5.80
10304;DHT22;5197;48.152;8.590;2023-11-19T14:31:01;13.00;5.70
10304;DHT22;5197;48.152;8.590;2023-11-19T14:33:28;13.00;5.80
10304;DHT22;5197;48.152;8.590;2023-11-19T14:35:55;12.90;6.70
10304;DHT22;5197;48.152;8.590;2023-11-19T14:38:22;12.90;5.70
10304;DHT22;5197;48.152;8.590;2023-11-19T14:40:49;12.90;5.50
10304;DHT22;5197;48.152;8.590;2023-11-19T14:43:16;12.80;6.00
10304;DHT22;5197;48.152;8.590;2023-11-19T14:45:43;12.70;5.10
10304;DHT22;5197;48.152;8.590;2023-11-19T14:48:16;12.70;5.50
10304;DHT22;5197;48.152;8.590;2023-11-19T14:50:45;12.60;5.60
10304;DHT22;5197;48.152;8.590;2023-11-19T14:53:12;12.60;6.40
10304;DHT22;5197;48.152;8.590;2023-11-19T14:55:39;12.50;5.80
10304;DHT22;5197;48.152;8.590;2023-11-19T14:58:09;12.50;5.70
10304;DHT22;5197;48.152;8.590;2023-11-19T15:00:40;12.40;4.90
10304;DHT22;5197;48.152;8.590;2023-11-19T15:03:07;12.30;4.40
10304;DHT22;5197;48.152;8.590;2023-11-19T15:05:36;12.20;4.50
10304;DHT22;5197;48.152;8.590;2023-11-19T15:08:03;12.20;4.90
10304;DHT22;5197;48.152;8.590;2023-11-19T15:10:30;12.20;5.10
10304;DHT22;5197;48.152;8.590;2023-11-19T15:12:57;12.20;5.20
10304;DHT22;5197;48.152;8.590;2023-11-19T15:15:25;12.10;4.90
10304;DHT22;5197;48.152;8.590;2023-11-19T15:17:55;12.10;5.00
10304;DHT22;5197;48.152;8.590;2023-11-19T15:20:22;12.10;4.90
10304;DHT22;5197;48.152;8.590;2023-11-19T15:22:50;12.00;4.90
10304;DHT22;5197;48.152;8.590;2023-11-19T15:25:17;12.00;4.70
10304;DHT22;5197;48.152;8.590;2023-11-19T15:27:44;12.00;5.00
10304;DHT22;5197;48.152;8.590;2023-11-19T15:30:12;12.00;5.00
10304;DHT22;5197;48.152;8.590;2023-11-19T15:32:39;12.00;5.30
10304;DHT22;5197;48.152;8.590;2023-11-19T15:35:07;11.90;5.20
10304;DHT22;5197;48.152;8.590;2023-11-19T15:37:38;11.90;5.30
10304;DHT22;5197;48.152;8.590;2023-11-19T15:40:08;11.90;5.40
10304;DHT22;5197;48.152;8.590;2023-11-19T15:42:36;11.80;5.50
10304;DHT22;5197;48.152;8.590;2023-11-19T15:45:04;11.80;5.70
10304;DHT22;5197;48.152;8.590;2023-11-19T15:47:32;11.80;5.60
10304;DHT22;5197;48.152;8.590;2023-11-19T15:49:59;11.70;5.60
10304;DHT22;5197;48.152;8.590;2023-11-19T15:52:26;11.70;5.70
10304;DHT22;5197;48.152;8.590;2023-11-19T15:54:54;11.60;5.90
10304;DHT22;5197;48.152;8.590;2023-11-19T15:57:21;11.60;5.90
10304;DHT22;5197;48.152;8.590;2023-11-19T15:59:48;11.60;6.10
10304;DHT22;5197;48.152;8.590;2023-11-19T16:02:15;11.50;6.10
10304;DHT22;5197;48.152;8.590;2023-11-19T16:04:42;11.50;6.40
10304;DHT22;5197;48.152;8.590;2023-11-19T16:07:14;11.40;6.10
10304;DHT22;5197;48.152;8.590;2023-11-19T16:09:41;11.40;6.30
10304;DHT22;5197;48.152;8.590;2023-11-19T16:12:08;11.30;6.40
10304;DHT22;5197;48.152;8.590;2023-11-19T16:14:36;11.30;6.50
10304;DHT22;5197;48.152;8.590;2023-11-19T16:17:03;11.30;6.60